createdAt,value
2024-03-15T00:01:56.543Z,3.77
2024-03-15T00:04:23.263Z,3.79
2024-03-15T00:06:49.977Z,3.77
2024-03-15T00:09:16.729Z,3.48
2024-03-15T00:11:43.533Z,3.34
2024-03-15T00:14:10.217Z,3.68
2024-03-15T00:16:37.081Z,3.77
2024-03-15T00:19:03.997Z,3.64
2024-03-15T00:21:31.005Z,3.77
2024-03-15T00:23:57.735Z,3.63
2024-03-15T00:26:24.418Z,3.65
2024-03-15T00:28:51.100Z,3.65
2024-03-15T00:31:17.785Z,3.32
2024-03-15T00:33:44.554Z,3.52
2024-03-15T00:36:11.304Z,3.59
2024-03-15T00:38:37.980Z,3.48
2024-03-15T00:41:04.643Z,3.38
2024-03-15T00:43:31.307Z,3.58
2024-03-15T00:45:58.082Z,3.47
2024-03-15T00:48:24.942Z,3.62
2024-03-15T00:50:51.646Z,3.49
2024-03-15T00:53:18.316Z,3.72
2024-03-15T00:55:44.965Z,3.79
2024-03-15T00:58:11.632Z,4.13
2024-03-15T01:00:38.333Z,4.89
2024-03-15T01:03:05.078Z,4.76
2024-03-15T01:05:31.806Z,5.07
2024-03-15T01:07:58.479Z,4.85
2024-03-15T01:10:25.408Z,5.14
2024-03-15T01:12:52.142Z,5.14
2024-03-15T01:15:18.942Z,5.22
2024-03-15T01:17:45.736Z,5.28
2024-03-15T01:20:12.488Z,5.57
2024-03-15T01:22:39.284Z,5.20
2024-03-15T01:25:07.594Z,4.63
2024-03-15T01:27:34.703Z,4.75
2024-03-15T01:30:01.602Z,5.00
2024-03-15T01:32:28.356Z,5.33
2024-03-15T01:34:55.056Z,4.96
2024-03-15T01:37:21.730Z,5.08
2024-03-15T01:39:48.452Z,5.30
2024-03-15T01:42:15.181Z,5.10
2024-03-15T01:44:41.899Z,5.15
2024-03-15T01:47:08.565Z,4.73
2024-03-15T01:49:35.467Z,4.22
2024-03-15T01:52:02.188Z,4.40
2024-03-15T01:54:28.846Z,4.53
2024-03-15T01:56:55.532Z,4.31
2024-03-15T01:59:22.283Z,4.06
2024-03-15T02:01:49.159Z,4.20
2024-03-15T02:04:15.915Z,4.22
2024-03-15T02:06:42.706Z,4.01
2024-03-15T02:09:09.535Z,4.24
2024-03-15T02:11:36.234Z,4.00
2024-03-15T02:14:02.895Z,4.22
2024-03-15T02:16:29.580Z,4.30
2024-03-15T02:18:56.355Z,4.31
2024-03-15T02:21:23.098Z,4.26
2024-03-15T02:23:49.758Z,4.17
2024-03-15T02:26:16.408Z,4.16
2024-03-15T02:28:43.213Z,4.22
2024-03-15T02:31:09.889Z,4.40
2024-03-15T02:33:36.632Z,4.40
2024-03-15T02:36:03.444Z,4.56
2024-03-15T02:38:30.081Z,4.64
2024-03-15T02:40:56.750Z,4.86
2024-03-15T02:43:23.436Z,5.00
2024-03-15T02:45:50.163Z,4.51
2024-03-15T02:48:17.092Z,4.75
2024-03-15T02:50:43.850Z,4.80
2024-03-15T02:53:10.519Z,5.09
2024-03-15T02:55:37.216Z,5.01
2024-03-15T02:58:03.879Z,5.11
2024-03-15T03:00:30.618Z,4.71
2024-03-15T03:02:57.290Z,5.38
2024-03-15T03:05:24.059Z,5.21
2024-03-15T03:07:50.916Z,4.58
2024-03-15T03:10:17.613Z,4.78
2024-03-15T03:12:44.453Z,4.67
2024-03-15T03:15:11.591Z,4.80
2024-03-15T03:17:38.939Z,4.94
2024-03-15T03:20:05.605Z,4.89
2024-03-15T03:22:32.274Z,5.09
2024-03-15T03:24:59.018Z,5.05
2024-03-15T03:27:25.709Z,5.30
2024-03-15T03:29:52.390Z,4.95
2024-03-15T03:32:19.061Z,5.16
2024-03-15T03:34:45.737Z,4.93
2024-03-15T03:37:12.423Z,5.27
2024-03-15T03:39:39.101Z,5.13
2024-03-15T03:42:05.937Z,5.04
2024-03-15T03:44:32.727Z,4.92
2024-03-15T03:46:59.454Z,4.76
2024-03-15T03:49:26.114Z,5.00
2024-03-15T03:51:52.795Z,4.92
2024-03-15T03:54:19.492Z,4.51
2024-03-15T03:56:46.168Z,4.79
2024-03-15T03:59:12.844Z,4.54
2024-03-15T04:01:39.640Z,4.75
2024-03-15T04:04:06.384Z,4.80
2024-03-15T04:06:33.117Z,4.80
2024-03-15T04:08:59.834Z,4.65
2024-03-15T04:11:26.544Z,4.78
2024-03-15T04:13:53.278Z,4.89
2024-03-15T04:16:20.012Z,4.80
2024-03-15T04:18:46.702Z,4.75
2024-03-15T04:21:13.468Z,4.66
2024-03-15T04:23:40.134Z,4.85
2024-03-15T04:26:06.799Z,4.75
2024-03-15T04:28:33.495Z,4.80
2024-03-15T04:31:00.269Z,4.69
2024-03-15T04:33:27.078Z,4.83
2024-03-15T04:35:53.943Z,4.50
2024-03-15T04:38:20.617Z,4.87
2024-03-15T04:40:47.286Z,4.75
2024-03-15T04:43:13.971Z,4.58
2024-03-15T04:45:40.796Z,4.57
2024-03-15T04:48:07.716Z,4.73
2024-03-15T04:50:34.464Z,4.53
2024-03-15T04:53:01.157Z,4.61
2024-03-15T04:55:29.189Z,4.54
2024-03-15T04:57:57.438Z,4.62
2024-03-15T05:00:24.408Z,4.65
2024-03-15T05:02:51.972Z,4.81
2024-03-15T05:05:19.995Z,4.61
2024-03-15T05:07:46.775Z,4.58
2024-03-15T05:10:13.596Z,4.82
2024-03-15T05:12:40.348Z,4.98
2024-03-15T05:15:07.181Z,4.58
2024-03-15T05:17:33.994Z,4.37
2024-03-15T05:20:00.698Z,4.50
2024-03-15T05:22:27.398Z,4.46
2024-03-15T05:24:54.080Z,4.59
2024-03-15T05:27:20.819Z,4.39
2024-03-15T05:29:47.544Z,4.84
2024-03-15T05:32:14.224Z,4.55
2024-03-15T05:34:40.915Z,4.41
2024-03-15T05:37:07.646Z,4.83
2024-03-15T05:39:34.414Z,4.56
2024-03-15T05:42:01.138Z,4.77
2024-03-15T05:44:27.812Z,4.82
2024-03-15T05:46:54.519Z,5.12
2024-03-15T05:49:21.181Z,4.90
2024-03-15T05:51:47.907Z,4.65
2024-03-15T05:54:14.744Z,4.69
2024-03-15T05:56:41.440Z,4.60
2024-03-15T05:59:08.123Z,4.56
2024-03-15T06:01:34.855Z,4.70
2024-03-15T06:04:01.582Z,4.42
2024-03-15T06:06:28.312Z,4.41
2024-03-15T06:08:55.000Z,4.20
2024-03-15T06:11:21.768Z,4.22
2024-03-15T06:13:48.431Z,4.26
2024-03-15T06:16:15.115Z,4.57
2024-03-15T06:18:41.852Z,4.48
2024-03-15T06:21:08.564Z,4.33
2024-03-15T06:23:35.263Z,4.62
2024-03-15T06:26:01.969Z,4.49
2024-03-15T06:28:28.672Z,4.59
2024-03-15T06:30:55.624Z,4.85
2024-03-15T06:33:22.428Z,4.52
2024-03-15T06:35:49.151Z,4.15
2024-03-15T06:38:15.838Z,4.60
2024-03-15T06:40:42.650Z,4.28
2024-03-15T06:43:09.321Z,4.38
2024-03-15T06:45:35.997Z,4.64
2024-03-15T06:48:02.734Z,4.00
2024-03-15T06:50:29.385Z,4.22
2024-03-15T06:52:56.048Z,4.54
2024-03-15T06:55:22.725Z,4.45
2024-03-15T06:57:49.454Z,4.51
2024-03-15T07:00:16.242Z,4.80
2024-03-15T07:02:42.930Z,4.53
2024-03-15T07:05:09.617Z,4.34
2024-03-15T07:07:36.420Z,4.07
2024-03-15T07:10:03.196Z,4.18
2024-03-15T07:12:29.979Z,4.44
2024-03-15T07:14:56.676Z,4.71
2024-03-15T07:17:23.322Z,4.67
2024-03-15T07:19:50.002Z,4.50
2024-03-15T07:22:16.786Z,4.41
2024-03-15T07:24:43.520Z,4.40
2024-03-15T07:27:10.319Z,4.30
2024-03-15T07:29:37.111Z,4.48
2024-03-15T07:32:03.865Z,4.37
2024-03-15T07:34:30.582Z,4.52
2024-03-15T07:36:57.380Z,5.14
2024-03-15T07:39:24.089Z,4.23
2024-03-15T07:41:50.785Z,4.03
2024-03-15T07:44:17.488Z,4.46
2024-03-15T07:46:44.158Z,4.68
2024-03-15T07:49:10.836Z,4.61
2024-03-15T07:51:37.730Z,4.56
2024-03-15T07:54:04.435Z,4.20
2024-03-15T07:56:31.134Z,4.11
2024-03-15T07:58:57.889Z,4.49
2024-03-15T08:01:24.656Z,4.63
2024-03-15T08:03:51.635Z,4.18
2024-03-15T08:06:18.482Z,4.62
2024-03-15T08:08:45.176Z,4.28
2024-03-15T08:11:11.878Z,3.93
2024-03-15T08:13:38.585Z,4.43
2024-03-15T08:16:05.435Z,4.79
2024-03-15T08:18:32.342Z,4.48
2024-03-15T08:20:59.194Z,4.49
2024-03-15T08:23:25.876Z,4.64
2024-03-15T08:25:52.585Z,4.87
2024-03-15T08:28:19.618Z,4.87
2024-03-15T08:30:46.548Z,5.12
2024-03-15T08:33:13.474Z,5.05
2024-03-15T08:35:40.228Z,5.05
2024-03-15T08:38:06.945Z,5.21
2024-03-15T08:40:33.659Z,5.35
2024-03-15T08:43:00.509Z,4.97
2024-03-15T08:45:27.619Z,5.55
2024-03-15T08:48:00.435Z,5.40
2024-03-15T08:50:28.448Z,5.21
2024-03-15T08:52:55.302Z,5.36
2024-03-15T08:55:22.102Z,5.07
2024-03-15T08:57:49.052Z,4.99
2024-03-15T09:00:15.773Z,4.73
2024-03-15T09:02:42.418Z,4.86
2024-03-15T09:05:08.949Z,5.02
2024-03-15T09:07:35.523Z,4.87
2024-03-15T09:10:02.525Z,4.81
2024-03-15T09:12:29.110Z,4.93
2024-03-15T09:14:55.731Z,5.03
2024-03-15T09:17:22.226Z,4.81
2024-03-15T09:19:48.711Z,4.87
2024-03-15T09:22:15.320Z,4.66
2024-03-15T09:24:42.021Z,5.08
2024-03-15T09:27:08.589Z,4.73
2024-03-15T09:29:35.144Z,4.75
2024-03-15T09:32:12.790Z,4.83
2024-03-15T09:34:43.598Z,4.63
2024-03-15T09:37:10.179Z,4.67
2024-03-15T09:39:36.748Z,4.86
2024-03-15T09:42:03.275Z,4.79
2024-03-15T09:44:29.835Z,5.51
2024-03-15T09:46:56.378Z,4.86
2024-03-15T09:49:23.132Z,5.41
2024-03-15T09:51:49.803Z,6.03
2024-03-15T09:54:16.501Z,5.70
2024-03-15T09:56:43.084Z,4.96
2024-03-15T09:59:09.761Z,5.23
2024-03-15T10:01:36.605Z,5.20
2024-03-15T10:04:03.497Z,5.36
2024-03-15T10:06:30.314Z,5.28
2024-03-15T10:08:57.086Z,5.08
2024-03-15T10:11:23.899Z,5.21
2024-03-15T10:13:50.711Z,6.38
2024-03-15T10:16:17.572Z,5.86
2024-03-15T10:18:44.287Z,5.77
2024-03-15T10:21:11.276Z,5.58
2024-03-15T10:23:38.189Z,5.44
2024-03-15T10:26:04.872Z,5.15
2024-03-15T10:28:31.837Z,4.98
2024-03-15T10:30:58.537Z,5.33
2024-03-15T10:33:25.338Z,5.29
2024-03-15T10:35:52.327Z,5.29
2024-03-15T10:38:19.074Z,5.00
2024-03-15T10:40:45.740Z,5.44
2024-03-15T10:43:12.565Z,5.05
2024-03-15T10:45:39.305Z,5.15
2024-03-15T10:48:06.083Z,5.22
2024-03-15T10:50:32.767Z,5.23
2024-03-15T10:52:59.434Z,5.56
2024-03-15T10:55:26.151Z,5.35
2024-03-15T10:57:52.846Z,5.42
2024-03-15T11:00:19.671Z,5.22
2024-03-15T11:02:46.536Z,5.07
2024-03-15T11:05:13.194Z,5.38
2024-03-15T11:07:39.969Z,5.02
2024-03-15T11:10:06.743Z,5.38
2024-03-15T11:12:33.503Z,5.24
2024-03-15T11:15:00.303Z,5.03
2024-03-15T11:17:27.083Z,5.23
2024-03-15T11:19:53.870Z,5.04
2024-03-15T11:22:21.167Z,5.30
2024-03-15T11:24:48.222Z,5.33
2024-03-15T11:27:15.105Z,5.20
2024-03-15T11:29:41.861Z,5.30
2024-03-15T11:32:08.566Z,5.57
2024-03-15T11:34:35.347Z,5.59
2024-03-15T11:37:02.100Z,5.52
2024-03-15T11:39:28.913Z,5.80
2024-03-15T11:41:55.588Z,6.01
2024-03-15T11:44:22.532Z,5.81
2024-03-15T11:46:49.257Z,5.70
2024-03-15T11:49:16.063Z,6.18
2024-03-15T11:51:42.890Z,6.36
2024-03-15T11:54:09.659Z,6.04
2024-03-15T11:56:36.343Z,6.27
2024-03-15T11:59:03.076Z,6.69
2024-03-15T12:01:29.965Z,6.21
2024-03-15T12:03:56.786Z,6.37
2024-03-15T12:06:23.541Z,6.96
2024-03-15T12:08:50.344Z,6.60
2024-03-15T12:11:17.113Z,6.96
2024-03-15T12:13:43.829Z,6.43
2024-03-15T12:16:10.603Z,6.42
2024-03-15T12:18:37.385Z,6.14
2024-03-15T12:21:04.114Z,6.52
2024-03-15T12:23:31.412Z,6.55
2024-03-15T12:25:58.951Z,6.06
2024-03-15T12:28:25.646Z,5.93
2024-03-15T12:30:52.418Z,5.98
2024-03-15T12:33:19.233Z,5.88
2024-03-15T12:35:46.398Z,5.93
2024-03-15T12:38:13.214Z,5.55
2024-03-15T12:40:39.909Z,4.99
2024-03-15T12:43:06.636Z,5.24
2024-03-15T12:45:33.474Z,4.81
2024-03-15T12:48:00.235Z,3.90
2024-03-15T12:50:27.009Z,3.06
2024-03-15T12:52:53.845Z,2.02
2024-03-15T12:55:20.557Z,2.01
2024-03-15T12:57:47.350Z,2.07
2024-03-15T13:00:14.086Z,3.01
2024-03-15T13:02:40.780Z,4.07
2024-03-15T13:05:07.451Z,3.91
2024-03-15T13:07:34.289Z,2.86
2024-03-15T13:10:01.148Z,2.02
2024-03-15T13:12:27.922Z,2.00
2024-03-15T13:14:57.653Z,2.46
2024-03-15T13:17:24.546Z,4.07
2024-03-15T13:19:51.229Z,4.01
2024-03-15T13:22:17.911Z,4.47
2024-03-15T13:24:44.618Z,4.39
2024-03-15T13:27:11.305Z,4.49
2024-03-15T13:29:38.107Z,3.95
2024-03-15T13:32:04.788Z,3.92
2024-03-15T13:34:31.442Z,3.96
2024-03-15T13:36:58.154Z,3.69
2024-03-15T13:39:24.986Z,3.57
2024-03-15T13:41:51.713Z,3.46
2024-03-15T13:44:18.392Z,3.78
2024-03-15T13:46:45.057Z,3.58
2024-03-15T13:49:11.952Z,3.67
2024-03-15T13:51:38.757Z,4.09
2024-03-15T13:54:05.489Z,3.72
2024-03-15T13:56:32.178Z,3.75
2024-03-15T13:58:58.913Z,3.32
2024-03-15T14:01:25.758Z,3.70
2024-03-15T14:03:52.708Z,3.33
2024-03-15T14:06:19.508Z,3.57
2024-03-15T14:08:46.201Z,3.35
2024-03-15T14:11:12.915Z,3.37
2024-03-15T14:13:39.608Z,3.41
2024-03-15T14:16:06.442Z,3.49
2024-03-15T14:18:33.208Z,3.56
2024-03-15T14:21:01.424Z,3.49
2024-03-15T14:23:28.209Z,3.44
2024-03-15T14:25:54.950Z,3.74
2024-03-15T14:28:21.706Z,3.48
2024-03-15T14:30:48.472Z,3.35
2024-03-15T14:33:15.204Z,3.24
2024-03-15T14:35:41.931Z,3.17
2024-03-15T14:38:08.600Z,3.62
2024-03-15T14:40:35.354Z,3.37
2024-03-15T14:43:02.153Z,3.66
2024-03-15T14:45:28.908Z,4.26
2024-03-15T14:47:55.737Z,5.05
2024-03-15T14:50:22.503Z,5.64
2024-03-15T14:52:49.223Z,6.02
2024-03-15T14:55:15.918Z,6.01
2024-03-15T14:57:42.645Z,5.86
2024-03-15T15:00:09.385Z,5.86
2024-03-15T15:02:36.176Z,5.31
2024-03-15T15:05:03.054Z,5.29
2024-03-15T15:07:29.980Z,5.01
2024-03-15T15:09:56.789Z,4.98
2024-03-15T15:12:23.636Z,5.06
2024-03-15T15:14:50.315Z,4.96
2024-03-15T15:17:17.098Z,5.14
2024-03-15T15:19:43.933Z,5.04
2024-03-15T15:22:10.766Z,4.84
2024-03-15T15:24:37.559Z,4.63
2024-03-15T15:27:04.238Z,4.50
2024-03-15T15:29:30.944Z,4.45
2024-03-15T15:31:57.599Z,4.51
2024-03-15T15:34:25.631Z,4.38
2024-03-15T15:36:52.666Z,4.57
2024-03-15T15:39:19.485Z,4.64
2024-03-15T15:41:46.184Z,4.42
2024-03-15T15:44:12.841Z,4.19
2024-03-15T15:46:39.661Z,3.90
2024-03-15T15:49:06.553Z,3.52
2024-03-15T15:51:33.584Z,4.00
2024-03-15T15:54:00.333Z,4.12
2024-03-15T15:56:26.993Z,3.78
2024-03-15T15:58:53.647Z,3.81
2024-03-15T16:01:20.537Z,3.96
2024-03-15T16:03:47.451Z,4.70
2024-03-15T16:06:14.181Z,4.05
2024-03-15T16:08:40.853Z,3.72
2024-03-15T16:11:07.566Z,3.91
2024-03-15T16:13:34.328Z,3.73
2024-03-15T16:16:01.074Z,3.41
2024-03-15T16:18:27.841Z,3.77
2024-03-15T16:20:54.522Z,3.38
2024-03-15T16:23:21.185Z,3.09
2024-03-15T16:25:47.837Z,2.91
2024-03-15T16:28:14.614Z,2.64
2024-03-15T16:30:41.340Z,2.69
2024-03-15T16:33:10.163Z,2.68
2024-03-15T16:35:37.900Z,2.76
2024-03-15T16:38:04.572Z,2.53
2024-03-15T16:40:31.255Z,2.69
2024-03-15T16:42:58.086Z,2.67
2024-03-15T16:45:24.844Z,2.81
2024-03-15T16:47:51.584Z,2.79
2024-03-15T16:50:18.307Z,2.68
2024-03-15T16:52:45.068Z,2.53
2024-03-15T16:55:11.754Z,2.91
2024-03-15T16:57:38.483Z,2.88
2024-03-15T17:00:05.136Z,2.82
2024-03-15T17:02:32.069Z,3.09
2024-03-15T17:04:58.729Z,2.68
2024-03-15T17:07:25.445Z,3.14
2024-03-15T17:09:52.310Z,3.66
2024-03-15T17:12:19.186Z,3.03
2024-03-15T17:14:45.933Z,2.85
2024-03-15T17:17:12.665Z,2.68
2024-03-15T17:19:39.329Z,2.84
2024-03-15T17:22:06.112Z,2.75
2024-03-15T17:24:32.894Z,2.94
2024-03-15T17:26:59.621Z,2.93
2024-03-15T17:29:26.309Z,2.84
2024-03-15T17:31:53.008Z,2.71
2024-03-15T17:34:19.694Z,2.23
2024-03-15T17:36:46.513Z,2.59
2024-03-15T17:39:13.300Z,3.15
2024-03-15T17:41:40.091Z,3.59
2024-03-15T17:44:06.814Z,2.67
2024-03-15T17:46:33.479Z,2.41
2024-03-15T17:49:00.472Z,2.96
2024-03-15T17:51:27.359Z,2.31
2024-03-15T17:53:58.123Z,2.00
2024-03-15T17:56:25.089Z,2.49
2024-03-15T17:58:51.881Z,2.31
2024-03-15T18:01:18.561Z,2.33
2024-03-15T18:03:45.236Z,2.85
2024-03-15T18:06:11.904Z,3.52
2024-03-15T18:08:38.573Z,4.10
2024-03-15T18:11:05.256Z,3.27
2024-03-15T18:13:31.925Z,6.31
2024-03-15T18:15:58.700Z,3.73
2024-03-15T18:18:25.482Z,2.68
2024-03-15T18:20:52.172Z,2.65
2024-03-15T18:23:19.081Z,2.87
2024-03-15T18:25:45.901Z,2.78
2024-03-15T18:28:14.518Z,3.05
2024-03-15T18:30:41.258Z,2.48
2024-03-15T18:33:07.974Z,3.36
2024-03-15T18:35:34.725Z,2.74
2024-03-15T18:38:01.430Z,2.73
2024-03-15T18:40:28.092Z,2.82
2024-03-15T18:42:54.793Z,2.51
2024-03-15T18:45:21.519Z,2.56
2024-03-15T18:47:48.667Z,2.53
2024-03-15T18:50:15.386Z,3.00
2024-03-15T18:52:42.052Z,3.77
2024-03-15T18:55:08.873Z,4.59
2024-03-15T18:57:35.670Z,5.02
2024-03-15T19:00:02.352Z,5.41
2024-03-15T19:02:29.047Z,6.70
2024-03-15T19:04:55.772Z,3.36
2024-03-15T19:07:22.489Z,3.26
2024-03-15T19:09:49.258Z,3.44
2024-03-15T19:12:16.089Z,3.17
2024-03-15T19:14:42.891Z,3.57
2024-03-15T19:17:09.592Z,4.26
2024-03-15T19:19:36.277Z,4.91
2024-03-15T19:22:03.011Z,4.81
2024-03-15T19:24:29.775Z,4.80
2024-03-15T19:26:56.466Z,4.22
2024-03-15T19:29:23.136Z,4.99
2024-03-15T19:31:49.827Z,6.34
2024-03-15T19:34:16.499Z,7.42
2024-03-15T19:36:43.211Z,6.38
2024-03-15T19:39:09.910Z,5.56
2024-03-15T19:41:36.594Z,4.24
2024-03-15T19:44:03.279Z,4.01
2024-03-15T19:46:29.961Z,3.67
2024-03-15T19:48:56.687Z,4.06
2024-03-15T19:51:23.414Z,4.82
2024-03-15T19:53:50.089Z,6.13
2024-03-15T19:56:16.941Z,4.36
2024-03-15T19:58:43.731Z,3.93
2024-03-15T20:01:10.505Z,3.58
2024-03-15T20:03:37.439Z,3.51
2024-03-15T20:06:04.215Z,3.29
2024-03-15T20:08:30.861Z,3.23
2024-03-15T20:10:57.687Z,3.59
2024-03-15T20:13:24.406Z,3.37
2024-03-15T20:15:51.164Z,3.90
2024-03-15T20:18:17.918Z,4.32
2024-03-15T20:20:44.589Z,4.03
2024-03-15T20:23:11.296Z,4.19
2024-03-15T20:25:37.983Z,4.31
2024-03-15T20:28:05.084Z,3.72
2024-03-15T20:30:32.215Z,3.76
2024-03-15T20:32:59.114Z,3.60
2024-03-15T20:35:25.821Z,3.83
2024-03-15T20:37:52.571Z,4.00
2024-03-15T20:40:19.367Z,5.00
2024-03-15T20:42:46.107Z,3.93
2024-03-15T20:45:12.825Z,3.80
2024-03-15T20:47:39.503Z,3.98
2024-03-15T20:50:06.238Z,4.90
2024-03-15T20:52:32.944Z,5.76
2024-03-15T20:54:59.696Z,4.69
2024-03-15T20:57:26.403Z,3.60
2024-03-15T20:59:53.315Z,3.12
2024-03-15T21:02:19.964Z,3.74
2024-03-15T21:04:47.765Z,3.61
2024-03-15T21:07:15.684Z,3.56
2024-03-15T21:09:42.408Z,3.27
2024-03-15T21:12:09.094Z,2.88
2024-03-15T21:14:35.769Z,3.57
2024-03-15T21:17:02.486Z,5.12
2024-03-15T21:19:29.175Z,2.96
2024-03-15T21:21:55.869Z,2.78
2024-03-15T21:24:22.605Z,2.68
2024-03-15T21:26:49.282Z,2.76
2024-03-15T21:29:16.002Z,3.10
2024-03-15T21:31:42.801Z,2.50
2024-03-15T21:34:09.641Z,2.53
2024-03-15T21:36:36.605Z,2.59
2024-03-15T21:39:03.304Z,2.86
2024-03-15T21:41:29.978Z,3.07
2024-03-15T21:43:56.652Z,2.56
2024-03-15T21:46:23.425Z,2.70
2024-03-15T21:48:50.235Z,2.71
2024-03-15T21:51:16.945Z,2.78
2024-03-15T21:53:43.640Z,2.95
2024-03-15T21:56:10.331Z,2.97
2024-03-15T21:58:37.030Z,3.15
2024-03-15T22:01:03.772Z,3.36
2024-03-15T22:03:30.486Z,3.31
2024-03-15T22:05:57.148Z,3.18
2024-03-15T22:08:23.813Z,3.34
2024-03-15T22:10:50.585Z,3.39
2024-03-15T22:13:17.328Z,3.23
2024-03-15T22:15:44.144Z,2.68
2024-03-15T22:18:10.867Z,2.91
2024-03-15T22:20:37.634Z,2.92
2024-03-15T22:23:04.329Z,2.80
2024-03-15T22:25:31.031Z,2.86
2024-03-15T22:27:57.762Z,2.86
2024-03-15T22:30:24.566Z,2.81
2024-03-15T22:32:51.313Z,2.83
2024-03-15T22:35:17.992Z,2.77
2024-03-15T22:37:44.659Z,3.20
2024-03-15T22:40:11.420Z,3.09
2024-03-15T22:42:38.174Z,3.06
2024-03-15T22:45:04.896Z,3.27
2024-03-15T22:47:31.551Z,3.11
2024-03-15T22:49:58.203Z,2.74
2024-03-15T22:52:24.867Z,2.73
2024-03-15T22:54:51.545Z,2.75
2024-03-15T22:57:18.256Z,2.90
2024-03-15T22:59:44.963Z,2.82
2024-03-15T23:02:11.627Z,3.12
2024-03-15T23:04:38.292Z,2.94
2024-03-15T23:07:05.114Z,3.00
2024-03-15T23:09:31.832Z,2.97
2024-03-15T23:11:58.357Z,2.94
2024-03-15T23:14:24.885Z,2.69
2024-03-15T23:16:51.414Z,2.60
2024-03-15T23:19:17.952Z,2.89
2024-03-15T23:21:44.742Z,2.73
2024-03-15T23:24:11.302Z,2.76
2024-03-15T23:26:37.881Z,2.92
2024-03-15T23:29:04.413Z,2.88
2024-03-15T23:31:30.917Z,2.88
2024-03-15T23:33:59.733Z,3.15
2024-03-15T23:36:27.812Z,3.14
2024-03-15T23:38:54.366Z,3.09
2024-03-15T23:41:20.863Z,2.79
2024-03-15T23:43:47.390Z,2.77
2024-03-15T23:46:13.970Z,2.84
2024-03-15T23:48:40.525Z,2.82
2024-03-15T23:51:07.063Z,2.67
2024-03-15T23:53:33.590Z,2.81
2024-03-15T23:56:00.197Z,3.23
2024-03-15T23:58:26.812Z,3.14
